EW5862 Weather Reports


time (UTC)temp
C
wind
direction
speed
KPH
gust
KPH
rain 1hr
cm
rain 24hr
cm
rain mn
cm
humidity
%
barometer
mb
20190420021016 11 45 48.3 62.8 0.25 5.89 1.68 92 1009.8
20190420020016 11 45 53.1 72.4 0.28 5.89 1.68 92 1009.8
20190420015016 11 45 45.1 66.0 0.23 5.82 1.57 92 1010.2
20190420014016 11 45 38.6 57.9 0.18 5.74 1.52 93 1010.5
20190420013016 11 45 32.2 48.3 0.13 5.69 1.47 93 1010.7
20190420012016 11 45 38.6 54.7 0.13 5.66 1.45 93 1010.7
20190420011016 11 45 32.2 43.5 0.15 5.64 1.40 93 1011.0
20190420010016 11 45 25.7 40.2 0.18 5.61 1.40 93 1011.0
20190420005015 11 22 30.6 38.6 0.18 5.56 1.35 93 1011.1
20190420004015 11 22 27.4 37.0 0.28 5.56 1.35 93 1011.1
20190420003015 11 45 30.6 37.0 0.33 5.54 1.32 93 1012.0
20190420002016 11 22 30.6 40.2 0.43 5.54 1.30 93 1011.6
20190420001016 11 45 16.1 22.5 0.46 5.46 1.24 93 1012.6
20190420000015 11 0 25.7 37.0 0.51 5.41 1.19 93 1011.4
20190419235015 11 22 24.1 33.8 0.64 5.36 1.14 94 1012.7
20190419234016 10 0 17.7 25.7 0.64 5.26 1.04 93 1012.8
20190419233016 10 0 16.1 22.5 0.71 5.21 0.99 93 1013.0
20190419232015 10 0 16.1 20.9 0.66 5.08 0.86 93 1013.0
20190419231016 9 292 9.7 14.5 0.66 5.00 0.79 93 1013.6
20190419230015 9 292 9.7 14.5 0.66 4.88 0.66 93 1013.8
20190419225015 8 270 12.9 17.7 0.61 4.72 0.51 93 1013.9
20190419224015 9 270 12.9 17.7 0.56 4.60 0.38 93 1014.1
20190419223015 10 337 9.7 14.5 0.48 4.50 0.28 94 1014.4
20190419222015 9 135 3.2 8.0 0.46 4.42 0.18 93 1014.4
20190419221015 10 112 4.8 6.4 0.51 4.32 0.10 93 1014.4
20190419220016 10 337 14.5 19.3 0.46 4.22 4.22 93 1014.1
20190419215016 9 292 6.4 8.0 0.41 4.11 4.11 93 1014.2
20190419214015 8 292 8.0 12.9 0.38 4.04 4.04 93 1014.4
20190419213015 8 315 11.3 16.1 0.36 3.99 3.99 93 1014.8
20190419212015 8 315 6.4 12.9 0.36 3.94 3.94 93 1015.3
20190419211016 8 0 6.4 16.1 0.28 3.81 3.81 93 1015.3
20190419210015 8 337 14.5 20.9 0.28 3.73 3.73 93 1014.9
20190419205015 8 337 20.9 30.6 0.33 3.68 3.68 93 1014.5
20190419204015 8 0 12.9 20.9 0.33 3.66 3.66 93 1014.7
20190419203015 8 0 17.7 29.0 0.30 3.61 3.61 93 1014.8
20190419202015 8 337 17.7 25.7 0.28 3.56 3.56 93 1014.7
20190419201015 8 337 20.9 30.6 0.28 3.53 3.53 93 1014.6
20190419200015 8 0 12.9 19.3 0.18 3.43 3.43 93 1014.7
20190419195015 8 0 17.7 22.5 0.13 3.35 3.35 93 1014.8
20190419194015 8 337 19.3 24.1 0.15 3.30 3.30 93 1014.6
20190419193015 8 337 20.9 30.6 0.20 3.28 3.28 93 1014.4
20190419192015 8 0 27.4 38.6 0.30 3.28 3.28 93 1014.2
20190419191015 8 337 25.7 32.2 0.36 3.25 3.25 93 1014.3
20190419190015 8 337 20.9 29.0 0.38 3.23 3.23 93 1014.4
20190419185015 8 337 17.7 24.1 0.38 3.20 3.20 93 1014.6
20190419184015 8 0 19.3 25.7 0.38 3.15 3.15 93 1014.7
20190419183015 8 0 14.5 20.9 0.36 3.07 3.07 93 1014.8
20190419182015 8 337 11.3 17.7 0.28 2.95 2.95 93 1014.7
20190419181015 8 337 14.5 19.3 0.28 2.90 2.90 93 1014.6
20190419180015 8 337 12.9 19.3 0.30 2.82 2.82 93 1014.4
20190419175015 8 0 17.7 24.1 0.33 2.82 2.82 93 1014.4
20190419174015 8 0 17.7 24.1 0.28 2.74 2.74 93 1014.3
20190419173015 8 0 17.7 27.4 0.28 2.69 2.69 93 1014.2
20190419172015 8 0 14.5 20.9 0.25 2.64 2.64 93 1014.4
20190419171015 8 22 12.9 17.7 0.23 2.59 2.59 93 1014.3
20190419170015 8 0 14.5 20.9 0.20 2.51 2.51 93 1014.1
20190419165015 9 22 8.0 14.5 0.20 2.46 2.46 93 1014.0
20190419164015 8 22 12.9 17.7 0.20 2.44 2.44 93 1014.1
20190419163015 8 22 12.9 17.7 0.18 2.41 2.41 93 1014.0
20190419162017 8 22 12.9 16.1 0.18 2.39 2.39 93 1014.0
20190419161017 8 45 9.7 12.9 0.18 2.34 2.34 93 1014.1
20190419160017 8 45 4.8 9.7 0.13 2.29 2.29 93 1013.9
20190419155017 8 45 6.4 11.3 0.13 2.24 2.24 93 1013.8
20190419154017 9 22 8.0 11.3 0.13 2.24 2.24 93 1013.8
20190419153017 9 0 8.0 14.5 0.18 2.21 2.21 93 1013.6
20190419152017 9 22 8.0 12.9 0.15 2.18 2.18 93 1013.7
20190419151017 9 0 8.0 14.5 0.18 2.16 2.16 93 1013.4
20190419150017 9 22 12.9 17.7 0.20 2.16 2.16 93 1013.6
20190419145017 9 22 11.3 14.5 0.18 2.11 2.11 93 1013.6
20190419144017 9 22 8.0 12.9 0.23 2.08 2.08 92 1013.6
20190419143017 9 0 9.7 12.9 0.18 2.03 2.03 93 1013.6
20190419142017 9 22 8.0 11.3 0.23 2.03 2.03 93 1013.7
20190419141017 9 22 4.8 8.0 0.20 1.98 1.98 93 1013.8
20190419140017 9 22 4.8 6.4 0.18 1.93 1.93 92 1013.7
20190419135017 9 22 8.0 11.3 0.18 1.91 1.91 92 1014.0
20190419134017 9 0 4.8 6.4 0.13 1.85 1.85 92 1013.9
20190419133017 9 22 4.8 6.4 0.15 1.83 1.83 92 1013.9
20190419132017 9 22 4.8 6.4 0.15 1.78 1.78 93 1014.1
20190419131017 9 22 3.2 6.4 0.15 1.78 1.78 92 1013.8
20190419130016 9 45 4.8 8.0 0.15 1.75 1.75 93 1014.0
20190419125017 9 22 3.2 6.4 0.13 1.73 1.73 92 1013.9
20190419124016 9 22 4.8 8.0 0.13 1.70 1.70 93 1014.0
20190419123016 9 135 1.6 3.2 0.08 1.68 1.68 92 1014.2
20190419122016 10 0.0 3.2 0.08 1.63 1.63 92 1014.1
20190419121016 10 180 1.6 1.6 0.08 1.60 1.60 92 1013.9
20190419120016 10 202 3.2 6.4 0.08 1.57 1.57 92 1013.9
20190419115017 10 202 3.2 4.8 0.08 1.57 1.57 92 1013.8
20190419114017 10 180 4.8 6.4 0.08 1.57 1.57 92 1014.0
20190419113017 10 180 3.2 4.8 0.08 1.57 1.57 92 1014.1
20190419112015 10 180 6.4 9.7 0.05 1.52 1.52 92 1014.1
20190419111015 10 180 4.8 8.0 0.05 1.50 1.50 92 1014.2
20190419110015 10 180 3.2 6.4 0.08 1.50 1.50 92 1014.2
20190419105015 10 202 3.2 4.8 0.05 1.50 1.50 92 1014.2
20190419104015 10 202 3.2 6.4 0.08 1.50 1.50 93 1014.2
20190419103015 9 180 1.6 3.2 0.08 1.47 1.47 93 1014.4
20190419102015 10 270 3.2 6.4 0.08 1.47 1.47 93 1014.3
20190419101016 10 270 3.2 4.8 0.08 1.45 1.45 93 1014.3
20190419100015 10 0 3.2 4.8 0.08 1.42 1.42 93 1014.5
20190419095015 10 0 3.2 4.8 0.08 1.42 1.42 93 1014.5
20190419094015 10 22 4.8 6.4 0.08 1.40 1.40 93 1014.5
20190419093015 10 0 4.8 6.4 0.08 1.40 1.40 93 1014.5
20190419092016 10 45 4.8 6.4 0.13 1.37 1.40 93 1014.5
20190419091015 9 0 3.2 4.8 0.18 1.37 1.37 93 1014.3
20190419090015 10 0 1.6 4.8 0.20 1.35 1.35 93 1014.3
20190419085017 9 0.0 1.6 0.28 1.35 1.35 93 1014.1
20190419084017 9 0.0 0.0 0.28 1.32 1.32 93 1014.3
20190419083016 10 0.0 0.0 0.28 1.30 1.30 93 1014.4
20190419082015 9 0.0 1.6 0.28 1.22 1.24 93 1014.5
20190419081015 9 0.0 0.0 0.25 1.17 1.19 93 1014.5
20190419080015 9 0.0 1.6 0.23 1.12 1.12 93 1014.4
20190419075015 9 0 3.2 6.4 0.20 1.07 1.07 93 1014.2
20190419074015 9 0.0 0.0 0.20 1.02 1.02 93 1014.2
20190419073017 9 0.0 1.6 0.20 0.99 0.99 93 1014.0
20190419072017 9 0.0 1.6 0.25 0.94 0.94 93 1014.0
20190419071517 9 0 1.6 4.8 0.25 0.94 0.94 93 1013.9
20190419070517 9 0.0 0.0 0.25 0.89 0.89 93 1013.9
20190419065517 9 0.0 1.6 0.25 0.86 0.86 93 1013.6
20190419064517 9 135 6.4 11.3 0.23 0.84 0.84 93 1013.9
20190419063517 10 135 8.0 14.5 0.20 0.79 0.79 93 1013.9
20190419062517 10 157 4.8 9.7 0.18 0.74 0.74 93 1013.8
20190419061517 10 135 4.8 9.7 0.13 0.66 0.66 93 1013.6
20190419060517 10 135 3.2 6.4 0.13 0.64 0.64 93 1013.4
20190419055517 10 90 4.8 6.4 0.10 0.61 0.61 93 1013.1
20190419054517 10 67 3.2 6.4 0.10 0.58 0.58 93 1013.2
20190419053517 10 45 4.8 6.4 0.18 0.56 0.56 93 1012.9
20190419052517 9 45 3.2 6.4 0.23 0.56 0.56 93 1013.0
20190419051517 9 45 3.2 4.8 0.28 0.53 0.53 93 1012.7
20190419050526 9 0 3.2 4.8 0.28 0.48 0.48 92 1012.5
20190419045517 9 0 4.8 6.4 0.38 0.48 0.48 92 1012.6
20190419044516 9 0 1.6 4.8 0.46 0.46 0.46 92 1012.6
20190419043516 9 0 3.2 6.4 0.38 0.38 0.38 92 1012.5
20190419042517 9 0 3.2 6.4 0.30 0.30 0.30 92 1012.6
20190419041517 9 22 6.4 8.0 0.25 0.25 0.25 92 1012.5
20190419040519 9 22 8.0 12.9 0.20 0.20 0.20 92 1012.6
20190419035517 9 22 6.4 9.7 0.08 0.08 0.08 91 1012.6
20190419034516 9 22 8.0 11.3 0.00 0.00 0.00 91 1012.4
20190419033516 8 22 8.0 9.7 0.00 0.00 0.00 91 1012.5
20190419032517 8 22 6.4 9.7 0.00 0.00 0.00 90 1012.4
20190419031517 8 0 9.7 17.7 0.00 0.00 0.00 90 1012.5
20190419030516 8 0 9.7 14.5 0.00 0.00 0.00 90 1012.4
20190419025516 8 0 6.4 9.7 0.00 0.00 0.00 90 1012.6
20190419024516 8 0 4.8 8.0 0.00 0.00 0.00 90 1012.7
20190419023517 8 22 4.8 8.0 0.00 0.00 0.00 90 1012.4
20190419022516 8 45 11.3 14.5 0.00 0.00 0.00 90 1012.2
20190419021516 8 0 3.2 4.8 0.00 0.00 0.00 90 1012.7